sensor_id;sensor_type;location;lat;lon;timestamp;P1;durP1;ratioP1;P2;durP2;ratioP2
57155;SDS011;43023;59.928;10.682;2022-12-31T00:00:29;0.50;;;0.32;;
57155;SDS011;43023;59.928;10.682;2022-12-31T00:02:55;1.60;;;0.57;;
57155;SDS011;43023;59.928;10.682;2022-12-31T00:05:21;1.80;;;0.57;;
57155;SDS011;43023;59.928;10.682;2022-12-31T00:07:48;0.57;;;0.28;;
57155;SDS011;43023;59.928;10.682;2022-12-31T00:10:14;2.35;;;0.65;;
57155;SDS011;43023;59.928;10.682;2022-12-31T00:12:40;0.63;;;0.30;;
57155;SDS011;43023;59.928;10.682;2022-12-31T00:15:06;2.00;;;0.40;;
57155;SDS011;43023;59.928;10.682;2022-12-31T00:17:32;1.02;;;0.50;;
57155;SDS011;43023;59.928;10.682;2022-12-31T00:19:58;0.77;;;0.30;;
57155;SDS011;43023;59.928;10.682;2022-12-31T00:22:25;0.60;;;0.50;;
57155;SDS011;43023;59.928;10.682;2022-12-31T00:24:51;1.88;;;0.40;;
57155;SDS011;43023;59.928;10.682;2022-12-31T00:27:17;0.25;;;0.20;;
57155;SDS011;43023;59.928;10.682;2022-12-31T00:29:43;0.65;;;0.40;;
57155;SDS011;43023;59.928;10.682;2022-12-31T00:32:09;1.60;;;0.45;;
57155;SDS011;43023;59.928;10.682;2022-12-31T00:34:35;0.50;;;0.30;;
57155;SDS011;43023;59.928;10.682;2022-12-31T00:37:01;1.27;;;0.43;;
57155;SDS011;43023;59.928;10.682;2022-12-31T00:39:27;0.88;;;0.32;;
57155;SDS011;43023;59.928;10.682;2022-12-31T00:41:53;1.95;;;0.50;;
57155;SDS011;43023;59.928;10.682;2022-12-31T00:44:19;1.40;;;0.65;;
57155;SDS011;43023;59.928;10.682;2022-12-31T00:46:45;0.60;;;0.30;;
57155;SDS011;43023;59.928;10.682;2022-12-31T00:49:12;1.25;;;0.40;;
57155;SDS011;43023;59.928;10.682;2022-12-31T00:51:38;0.85;;;0.30;;
57155;SDS011;43023;59.928;10.682;2022-12-31T00:54:04;0.40;;;0.30;;
57155;SDS011;43023;59.928;10.682;2022-12-31T00:56:31;1.17;;;0.40;;
57155;SDS011;43023;59.928;10.682;2022-12-31T00:58:58;2.45;;;0.55;;
57155;SDS011;43023;59.928;10.682;2022-12-31T01:01:31;0.70;;;0.35;;
57155;SDS011;43023;59.928;10.682;2022-12-31T01:04:02;0.65;;;0.20;;
57155;SDS011;43023;59.928;10.682;2022-12-31T01:06:28;2.22;;;0.40;;
57155;SDS011;43023;59.928;10.682;2022-12-31T01:08:54;0.50;;;0.30;;
57155;SDS011;43023;59.928;10.682;2022-12-31T01:11:21;1.23;;;0.22;;
57155;SDS011;43023;59.928;10.682;2022-12-31T01:13:51;1.35;;;0.40;;
57155;SDS011;43023;59.928;10.682;2022-12-31T01:16:19;1.33;;;0.20;;
57155;SDS011;43023;59.928;10.682;2022-12-31T01:18:45;0.70;;;0.35;;
57155;SDS011;43023;59.928;10.682;2022-12-31T01:21:11;2.33;;;0.43;;
57155;SDS011;43023;59.928;10.682;2022-12-31T01:23:38;0.65;;;0.32;;
57155;SDS011;43023;59.928;10.682;2022-12-31T01:26:05;1.35;;;0.38;;
57155;SDS011;43023;59.928;10.682;2022-12-31T01:28:32;1.38;;;0.20;;
57155;SDS011;43023;59.928;10.682;2022-12-31T01:31:01;0.82;;;0.30;;
57155;SDS011;43023;59.928;10.682;2022-12-31T01:33:27;0.75;;;0.40;;
57155;SDS011;43023;59.928;10.682;2022-12-31T01:35:53;0.28;;;0.20;;
57155;SDS011;43023;59.928;10.682;2022-12-31T01:38:19;0.77;;;0.60;;
57155;SDS011;43023;59.928;10.682;2022-12-31T01:40:45;0.22;;;0.22;;
57155;SDS011;43023;59.928;10.682;2022-12-31T01:43:15;1.27;;;0.20;;
57155;SDS011;43023;59.928;10.682;2022-12-31T01:45:42;0.47;;;0.40;;
57155;SDS011;43023;59.928;10.682;2022-12-31T01:48:10;0.45;;;0.30;;
57155;SDS011;43023;59.928;10.682;2022-12-31T01:50:37;0.30;;;0.20;;
57155;SDS011;43023;59.928;10.682;2022-12-31T01:53:05;0.95;;;0.30;;
57155;SDS011;43023;59.928;10.682;2022-12-31T01:55:33;1.25;;;0.43;;
57155;SDS011;43023;59.928;10.682;2022-12-31T01:58:05;0.60;;;0.20;;
57155;SDS011;43023;59.928;10.682;2022-12-31T02:00:33;0.20;;;0.20;;
57155;SDS011;43023;59.928;10.682;2022-12-31T02:02:59;0.65;;;0.20;;
57155;SDS011;43023;59.928;10.682;2022-12-31T02:05:27;0.20;;;0.20;;
57155;SDS011;43023;59.928;10.682;2022-12-31T02:07:55;0.35;;;0.30;;
57155;SDS011;43023;59.928;10.682;2022-12-31T02:10:22;0.43;;;0.38;;
57155;SDS011;43023;59.928;10.682;2022-12-31T02:12:48;0.68;;;0.20;;
57155;SDS011;43023;59.928;10.682;2022-12-31T02:15:15;0.20;;;0.20;;
57155;SDS011;43023;59.928;10.682;2022-12-31T02:17:51;1.73;;;0.20;;
57155;SDS011;43023;59.928;10.682;2022-12-31T02:20:28;1.40;;;0.38;;
57155;SDS011;43023;59.928;10.682;2022-12-31T02:28:32;0.30;;;0.30;;
57155;SDS011;43023;59.928;10.682;2022-12-31T02:31:07;0.70;;;0.30;;
57155;SDS011;43023;59.928;10.682;2022-12-31T02:33:35;1.42;;;0.40;;
57155;SDS011;43023;59.928;10.682;2022-12-31T02:36:20;1.13;;;0.20;;
57155;SDS011;43023;59.928;10.682;2022-12-31T02:38:47;0.68;;;0.40;;
57155;SDS011;43023;59.928;10.682;2022-12-31T02:41:15;1.10;;;0.30;;
57155;SDS011;43023;59.928;10.682;2022-12-31T02:44:00;0.82;;;0.40;;
57155;SDS011;43023;59.928;10.682;2022-12-31T02:46:30;0.93;;;0.30;;
57155;SDS011;43023;59.928;10.682;2022-12-31T02:49:31;0.30;;;0.20;;
57155;SDS011;43023;59.928;10.682;2022-12-31T02:54:31;1.02;;;0.30;;
57155;SDS011;43023;59.928;10.682;2022-12-31T02:57:06;0.70;;;0.47;;
57155;SDS011;43023;59.928;10.682;2022-12-31T02:59:38;0.65;;;0.20;;
57155;SDS011;43023;59.928;10.682;2022-12-31T03:02:24;0.80;;;0.47;;
57155;SDS011;43023;59.928;10.682;2022-12-31T03:04:54;0.65;;;0.20;;
57155;SDS011;43023;59.928;10.682;2022-12-31T03:07:21;0.22;;;0.20;;
57155;SDS011;43023;59.928;10.682;2022-12-31T03:09:48;0.57;;;0.50;;
57155;SDS011;43023;59.928;10.682;2022-12-31T03:12:14;0.73;;;0.20;;
57155;SDS011;43023;59.928;10.682;2022-12-31T03:14:59;0.43;;;0.10;;
57155;SDS011;43023;59.928;10.682;2022-12-31T03:17:25;0.57;;;0.20;;
57155;SDS011;43023;59.928;10.682;2022-12-31T03:19:51;0.65;;;0.40;;
57155;SDS011;43023;59.928;10.682;2022-12-31T03:22:37;0.65;;;0.20;;
57155;SDS011;43023;59.928;10.682;2022-12-31T03:27:48;0.38;;;0.30;;
57155;SDS011;43023;59.928;10.682;2022-12-31T03:30:15;1.83;;;0.52;;
57155;SDS011;43023;59.928;10.682;2022-12-31T03:32:42;1.40;;;0.35;;
57155;SDS011;43023;59.928;10.682;2022-12-31T03:35:09;0.93;;;0.40;;
57155;SDS011;43023;59.928;10.682;2022-12-31T03:37:36;1.13;;;0.50;;
57155;SDS011;43023;59.928;10.682;2022-12-31T03:40:03;1.05;;;0.40;;
57155;SDS011;43023;59.928;10.682;2022-12-31T03:42:29;1.40;;;0.68;;
57155;SDS011;43023;59.928;10.682;2022-12-31T03:44:55;0.25;;;0.22;;
57155;SDS011;43023;59.928;10.682;2022-12-31T03:47:21;0.68;;;0.22;;
57155;SDS011;43023;59.928;10.682;2022-12-31T03:49:47;0.90;;;0.30;;
57155;SDS011;43023;59.928;10.682;2022-12-31T03:52:13;1.13;;;0.20;;
57155;SDS011;43023;59.928;10.682;2022-12-31T03:54:39;0.93;;;0.50;;
57155;SDS011;43023;59.928;10.682;2022-12-31T03:57:05;1.55;;;0.30;;
57155;SDS011;43023;59.928;10.682;2022-12-31T03:59:31;1.40;;;0.60;;
57155;SDS011;43023;59.928;10.682;2022-12-31T04:01:57;0.90;;;0.50;;
57155;SDS011;43023;59.928;10.682;2022-12-31T04:04:23;1.00;;;0.63;;
57155;SDS011;43023;59.928;10.682;2022-12-31T04:06:49;0.82;;;0.38;;
57155;SDS011;43023;59.928;10.682;2022-12-31T04:09:15;0.40;;;0.38;;
57155;SDS011;43023;59.928;10.682;2022-12-31T04:11:41;1.55;;;0.30;;
57155;SDS011;43023;59.928;10.682;2022-12-31T04:14:07;2.42;;;0.60;;
57155;SDS011;43023;59.928;10.682;2022-12-31T04:16:33;0.60;;;0.30;;
57155;SDS011;43023;59.928;10.682;2022-12-31T04:19:00;2.53;;;0.40;;
57155;SDS011;43023;59.928;10.682;2022-12-31T04:21:26;1.65;;;0.45;;
57155;SDS011;43023;59.928;10.682;2022-12-31T04:23:52;0.93;;;0.40;;
57155;SDS011;43023;59.928;10.682;2022-12-31T04:26:18;0.95;;;0.52;;
57155;SDS011;43023;59.928;10.682;2022-12-31T04:28:44;2.10;;;0.70;;
57155;SDS011;43023;59.928;10.682;2022-12-31T04:31:10;2.38;;;0.70;;
57155;SDS011;43023;59.928;10.682;2022-12-31T04:33:36;0.85;;;0.57;;
57155;SDS011;43023;59.928;10.682;2022-12-31T04:36:06;0.57;;;0.22;;
57155;SDS011;43023;59.928;10.682;2022-12-31T04:38:32;1.50;;;0.40;;
57155;SDS011;43023;59.928;10.682;2022-12-31T04:40:58;2.20;;;0.70;;
57155;SDS011;43023;59.928;10.682;2022-12-31T04:43:48;2.38;;;0.50;;
57155;SDS011;43023;59.928;10.682;2022-12-31T04:46:14;1.08;;;0.38;;
57155;SDS011;43023;59.928;10.682;2022-12-31T04:48:41;1.70;;;0.80;;
57155;SDS011;43023;59.928;10.682;2022-12-31T04:51:07;1.25;;;0.40;;
57155;SDS011;43023;59.928;10.682;2022-12-31T04:53:33;1.55;;;0.60;;
57155;SDS011;43023;59.928;10.682;2022-12-31T04:55:59;0.95;;;0.40;;
57155;SDS011;43023;59.928;10.682;2022-12-31T04:58:25;2.30;;;0.52;;
57155;SDS011;43023;59.928;10.682;2022-12-31T05:00:51;2.10;;;0.57;;
57155;SDS011;43023;59.928;10.682;2022-12-31T05:03:19;2.67;;;0.50;;
57155;SDS011;43023;59.928;10.682;2022-12-31T05:05:46;1.30;;;0.40;;
57155;SDS011;43023;59.928;10.682;2022-12-31T05:08:13;2.22;;;0.80;;
57155;SDS011;43023;59.928;10.682;2022-12-31T05:10:40;1.27;;;0.50;;
57155;SDS011;43023;59.928;10.682;2022-12-31T05:13:06;1.60;;;0.63;;
57155;SDS011;43023;59.928;10.682;2022-12-31T05:15:32;2.30;;;0.52;;
57155;SDS011;43023;59.928;10.682;2022-12-31T05:17:58;2.38;;;0.68;;
57155;SDS011;43023;59.928;10.682;2022-12-31T05:20:24;2.15;;;0.40;;
57155;SDS011;43023;59.928;10.682;2022-12-31T05:22:50;1.10;;;0.40;;
57155;SDS011;43023;59.928;10.682;2022-12-31T05:25:16;1.15;;;0.60;;
57155;SDS011;43023;59.928;10.682;2022-12-31T05:27:43;1.23;;;0.47;;
57155;SDS011;43023;59.928;10.682;2022-12-31T05:30:09;0.90;;;0.40;;
57155;SDS011;43023;59.928;10.682;2022-12-31T05:32:35;1.20;;;0.75;;
57155;SDS011;43023;59.928;10.682;2022-12-31T05:35:02;1.75;;;0.40;;
57155;SDS011;43023;59.928;10.682;2022-12-31T05:37:28;2.15;;;0.50;;
57155;SDS011;43023;59.928;10.682;2022-12-31T05:39:55;2.63;;;0.60;;
57155;SDS011;43023;59.928;10.682;2022-12-31T05:42:21;1.20;;;0.45;;
57155;SDS011;43023;59.928;10.682;2022-12-31T05:44:47;1.25;;;0.50;;
57155;SDS011;43023;59.928;10.682;2022-12-31T05:47:13;1.70;;;0.50;;
57155;SDS011;43023;59.928;10.682;2022-12-31T05:49:39;0.90;;;0.60;;
57155;SDS011;43023;59.928;10.682;2022-12-31T05:52:06;1.10;;;0.43;;
57155;SDS011;43023;59.928;10.682;2022-12-31T05:54:32;0.47;;;0.35;;
57155;SDS011;43023;59.928;10.682;2022-12-31T05:56:58;2.53;;;0.70;;
57155;SDS011;43023;59.928;10.682;2022-12-31T05:59:24;2.83;;;0.68;;
57155;SDS011;43023;59.928;10.682;2022-12-31T06:01:50;1.70;;;0.68;;
57155;SDS011;43023;59.928;10.682;2022-12-31T06:04:16;1.40;;;0.93;;
57155;SDS011;43023;59.928;10.682;2022-12-31T06:06:42;1.08;;;0.40;;
57155;SDS011;43023;59.928;10.682;2022-12-31T06:09:08;1.27;;;0.50;;
57155;SDS011;43023;59.928;10.682;2022-12-31T06:11:34;1.63;;;0.68;;
57155;SDS011;43023;59.928;10.682;2022-12-31T06:14:00;2.30;;;0.57;;
57155;SDS011;43023;59.928;10.682;2022-12-31T06:16:26;1.10;;;0.63;;
57155;SDS011;43023;59.928;10.682;2022-12-31T06:18:53;1.30;;;0.45;;
57155;SDS011;43023;59.928;10.682;2022-12-31T06:21:20;0.60;;;0.50;;
57155;SDS011;43023;59.928;10.682;2022-12-31T06:23:46;3.55;;;0.50;;
57155;SDS011;43023;59.928;10.682;2022-12-31T06:26:13;1.80;;;0.75;;
57155;SDS011;43023;59.928;10.682;2022-12-31T06:28:39;2.30;;;0.77;;
57155;SDS011;43023;59.928;10.682;2022-12-31T06:31:06;1.98;;;0.60;;
57155;SDS011;43023;59.928;10.682;2022-12-31T06:33:33;2.65;;;0.70;;
57155;SDS011;43023;59.928;10.682;2022-12-31T06:36:00;2.10;;;0.70;;
57155;SDS011;43023;59.928;10.682;2022-12-31T06:38:27;1.30;;;0.77;;
57155;SDS011;43023;59.928;10.682;2022-12-31T06:40:53;0.98;;;0.50;;
57155;SDS011;43023;59.928;10.682;2022-12-31T06:43:20;1.00;;;0.50;;
57155;SDS011;43023;59.928;10.682;2022-12-31T06:45:46;1.35;;;0.40;;
57155;SDS011;43023;59.928;10.682;2022-12-31T06:48:12;3.80;;;0.65;;
57155;SDS011;43023;59.928;10.682;2022-12-31T06:50:38;1.30;;;0.40;;
57155;SDS011;43023;59.928;10.682;2022-12-31T06:53:05;3.28;;;0.63;;
57155;SDS011;43023;59.928;10.682;2022-12-31T06:55:31;2.45;;;0.80;;
57155;SDS011;43023;59.928;10.682;2022-12-31T06:57:57;1.55;;;0.43;;
57155;SDS011;43023;59.928;10.682;2022-12-31T07:00:23;1.80;;;0.68;;
57155;SDS011;43023;59.928;10.682;2022-12-31T07:05:26;1.45;;;0.68;;
57155;SDS011;43023;59.928;10.682;2022-12-31T07:18:05;1.17;;;0.50;;
57155;SDS011;43023;59.928;10.682;2022-12-31T07:20:31;1.73;;;0.63;;
57155;SDS011;43023;59.928;10.682;2022-12-31T07:22:58;1.38;;;0.60;;
57155;SDS011;43023;59.928;10.682;2022-12-31T07:25:24;2.03;;;0.52;;
57155;SDS011;43023;59.928;10.682;2022-12-31T07:30:38;1.77;;;0.60;;
57155;SDS011;43023;59.928;10.682;2022-12-31T07:33:11;2.08;;;0.65;;
57155;SDS011;43023;59.928;10.682;2022-12-31T07:35:47;2.10;;;0.80;;
57155;SDS011;43023;59.928;10.682;2022-12-31T07:45:51;2.25;;;0.90;;
57155;SDS011;43023;59.928;10.682;2022-12-31T07:48:24;2.65;;;0.82;;
57155;SDS011;43023;59.928;10.682;2022-12-31T07:50:51;2.90;;;0.85;;
57155;SDS011;43023;59.928;10.682;2022-12-31T07:53:19;3.55;;;0.80;;
57155;SDS011;43023;59.928;10.682;2022-12-31T07:55:45;2.08;;;0.80;;
57155;SDS011;43023;59.928;10.682;2022-12-31T07:58:17;3.70;;;0.88;;
57155;SDS011;43023;59.928;10.682;2022-12-31T08:00:44;4.93;;;0.97;;
57155;SDS011;43023;59.928;10.682;2022-12-31T08:03:16;3.15;;;0.60;;
57155;SDS011;43023;59.928;10.682;2022-12-31T08:05:51;5.63;;;0.80;;
57155;SDS011;43023;59.928;10.682;2022-12-31T08:13:45;2.65;;;0.88;;
57155;SDS011;43023;59.928;10.682;2022-12-31T08:16:12;2.78;;;1.05;;
57155;SDS011;43023;59.928;10.682;2022-12-31T08:18:38;5.32;;;0.80;;
57155;SDS011;43023;59.928;10.682;2022-12-31T08:23:43;10.57;;;1.08;;
57155;SDS011;43023;59.928;10.682;2022-12-31T08:38:55;3.75;;;1.30;;
57155;SDS011;43023;59.928;10.682;2022-12-31T08:43:53;3.85;;;1.05;;
57155;SDS011;43023;59.928;10.682;2022-12-31T08:46:30;4.88;;;0.98;;
57155;SDS011;43023;59.928;10.682;2022-12-31T08:48:58;10.50;;;1.80;;
57155;SDS011;43023;59.928;10.682;2022-12-31T08:51:25;5.78;;;1.00;;
57155;SDS011;43023;59.928;10.682;2022-12-31T08:53:51;4.28;;;1.52;;
57155;SDS011;43023;59.928;10.682;2022-12-31T09:01:25;5.32;;;1.20;;
57155;SDS011;43023;59.928;10.682;2022-12-31T09:04:14;4.47;;;1.10;;
57155;SDS011;43023;59.928;10.682;2022-12-31T09:06:50;3.97;;;1.20;;
57155;SDS011;43023;59.928;10.682;2022-12-31T09:19:37;5.95;;;1.90;;
57155;SDS011;43023;59.928;10.682;2022-12-31T09:22:03;4.55;;;1.27;;
57155;SDS011;43023;59.928;10.682;2022-12-31T09:24:29;5.28;;;1.67;;
57155;SDS011;43023;59.928;10.682;2022-12-31T09:29:35;3.85;;;1.05;;
57155;SDS011;43023;59.928;10.682;2022-12-31T09:34:34;3.95;;;1.23;;
57155;SDS011;43023;59.928;10.682;2022-12-31T09:37:03;4.90;;;1.42;;
57155;SDS011;43023;59.928;10.682;2022-12-31T09:39:44;2.63;;;1.13;;
57155;SDS011;43023;59.928;10.682;2022-12-31T09:42:16;5.07;;;1.67;;
57155;SDS011;43023;59.928;10.682;2022-12-31T09:55:26;3.30;;;1.25;;
57155;SDS011;43023;59.928;10.682;2022-12-31T10:03:45;5.85;;;1.50;;
57155;SDS011;43023;59.928;10.682;2022-12-31T10:06:19;5.18;;;1.30;;
57155;SDS011;43023;59.928;10.682;2022-12-31T10:11:24;6.65;;;1.23;;
57155;SDS011;43023;59.928;10.682;2022-12-31T10:16:41;7.28;;;1.98;;
57155;SDS011;43023;59.928;10.682;2022-12-31T10:22:12;3.60;;;1.48;;
57155;SDS011;43023;59.928;10.682;2022-12-31T10:24:45;5.97;;;1.58;;
57155;SDS011;43023;59.928;10.682;2022-12-31T10:40:21;5.05;;;1.58;;
57155;SDS011;43023;59.928;10.682;2022-12-31T10:50:38;3.47;;;1.80;;
57155;SDS011;43023;59.928;10.682;2022-12-31T10:55:46;4.45;;;1.45;;
57155;SDS011;43023;59.928;10.682;2022-12-31T11:03:57;4.57;;;1.55;;
57155;SDS011;43023;59.928;10.682;2022-12-31T11:14:36;6.00;;;1.33;;
57155;SDS011;43023;59.928;10.682;2022-12-31T11:17:23;5.63;;;1.85;;
57155;SDS011;43023;59.928;10.682;2022-12-31T11:19:56;6.55;;;1.42;;
57155;SDS011;43023;59.928;10.682;2022-12-31T11:22:33;9.38;;;1.73;;
57155;SDS011;43023;59.928;10.682;2022-12-31T11:28:07;6.93;;;1.33;;
57155;SDS011;43023;59.928;10.682;2022-12-31T11:43:34;3.97;;;1.20;;
57155;SDS011;43023;59.928;10.682;2022-12-31T11:56:22;25.30;;;11.75;;
57155;SDS011;43023;59.928;10.682;2022-12-31T11:58:51;21.35;;;10.50;;
57155;SDS011;43023;59.928;10.682;2022-12-31T12:01:25;21.67;;;8.38;;
57155;SDS011;43023;59.928;10.682;2022-12-31T12:03:54;24.60;;;8.25;;
57155;SDS011;43023;59.928;10.682;2022-12-31T12:06:23;12.40;;;5.82;;
57155;SDS011;43023;59.928;10.682;2022-12-31T12:08:50;12.25;;;4.85;;
57155;SDS011;43023;59.928;10.682;2022-12-31T12:11:17;8.55;;;3.53;;
57155;SDS011;43023;59.928;10.682;2022-12-31T12:13:45;12.70;;;4.03;;
57155;SDS011;43023;59.928;10.682;2022-12-31T12:16:11;16.38;;;4.25;;
57155;SDS011;43023;59.928;10.682;2022-12-31T12:21:09;11.50;;;4.43;;
57155;SDS011;43023;59.928;10.682;2022-12-31T12:23:36;16.45;;;3.83;;
57155;SDS011;43023;59.928;10.682;2022-12-31T12:26:03;13.80;;;3.45;;
57155;SDS011;43023;59.928;10.682;2022-12-31T12:28:30;9.93;;;3.50;;
57155;SDS011;43023;59.928;10.682;2022-12-31T12:31:05;10.52;;;3.25;;
57155;SDS011;43023;59.928;10.682;2022-12-31T12:33:41;15.55;;;2.95;;
57155;SDS011;43023;59.928;10.682;2022-12-31T12:36:09;13.63;;;3.40;;
57155;SDS011;43023;59.928;10.682;2022-12-31T12:38:36;9.73;;;2.58;;
57155;SDS011;43023;59.928;10.682;2022-12-31T12:41:03;5.70;;;2.85;;
57155;SDS011;43023;59.928;10.682;2022-12-31T12:43:33;7.78;;;2.38;;
57155;SDS011;43023;59.928;10.682;2022-12-31T12:46:04;7.82;;;2.03;;
57155;SDS011;43023;59.928;10.682;2022-12-31T12:51:00;8.38;;;1.52;;
57155;SDS011;43023;59.928;10.682;2022-12-31T12:53:35;5.47;;;1.83;;
57155;SDS011;43023;59.928;10.682;2022-12-31T13:06:35;3.08;;;1.38;;
57155;SDS011;43023;59.928;10.682;2022-12-31T13:14:26;3.60;;;1.23;;
57155;SDS011;43023;59.928;10.682;2022-12-31T13:28:10;4.45;;;1.48;;
57155;SDS011;43023;59.928;10.682;2022-12-31T13:30:38;5.65;;;1.23;;
57155;SDS011;43023;59.928;10.682;2022-12-31T13:33:18;4.43;;;1.30;;
57155;SDS011;43023;59.928;10.682;2022-12-31T13:35:48;5.93;;;1.60;;
57155;SDS011;43023;59.928;10.682;2022-12-31T13:38:22;5.20;;;1.20;;
57155;SDS011;43023;59.928;10.682;2022-12-31T13:46:24;7.20;;;1.25;;
57155;SDS011;43023;59.928;10.682;2022-12-31T13:48:49;7.15;;;1.02;;
57155;SDS011;43023;59.928;10.682;2022-12-31T13:51:21;7.20;;;1.13;;
57155;SDS011;43023;59.928;10.682;2022-12-31T13:54:02;6.15;;;1.40;;
57155;SDS011;43023;59.928;10.682;2022-12-31T13:56:35;4.03;;;1.10;;
57155;SDS011;43023;59.928;10.682;2022-12-31T13:59:15;3.90;;;1.00;;
57155;SDS011;43023;59.928;10.682;2022-12-31T14:07:40;6.60;;;1.20;;
57155;SDS011;43023;59.928;10.682;2022-12-31T14:10:12;8.10;;;1.25;;
57155;SDS011;43023;59.928;10.682;2022-12-31T14:22:32;3.60;;;1.08;;
57155;SDS011;43023;59.928;10.682;2022-12-31T14:25:01;9.70;;;1.60;;
57155;SDS011;43023;59.928;10.682;2022-12-31T14:27:30;3.53;;;1.27;;
57155;SDS011;43023;59.928;10.682;2022-12-31T14:30:03;4.78;;;1.15;;
57155;SDS011;43023;59.928;10.682;2022-12-31T14:32:46;11.77;;;2.97;;
57155;SDS011;43023;59.928;10.682;2022-12-31T14:37:50;16.25;;;2.17;;
57155;SDS011;43023;59.928;10.682;2022-12-31T14:40:25;9.20;;;2.10;;
57155;SDS011;43023;59.928;10.682;2022-12-31T14:50:45;6.88;;;1.92;;
57155;SDS011;43023;59.928;10.682;2022-12-31T14:53:21;8.98;;;1.48;;
57155;SDS011;43023;59.928;10.682;2022-12-31T14:55:55;6.80;;;1.15;;
57155;SDS011;43023;59.928;10.682;2022-12-31T14:58:22;3.95;;;1.60;;
57155;SDS011;43023;59.928;10.682;2022-12-31T15:03:51;4.97;;;1.20;;
57155;SDS011;43023;59.928;10.682;2022-12-31T15:27:45;14.73;;;1.45;;
57155;SDS011;43023;59.928;10.682;2022-12-31T15:30:28;3.70;;;1.02;;
57155;SDS011;43023;59.928;10.682;2022-12-31T15:32:56;3.20;;;1.08;;
57155;SDS011;43023;59.928;10.682;2022-12-31T15:35:30;3.00;;;1.05;;
57155;SDS011;43023;59.928;10.682;2022-12-31T15:40:24;1.88;;;0.75;;
57155;SDS011;43023;59.928;10.682;2022-12-31T15:45:38;2.42;;;0.70;;
57155;SDS011;43023;59.928;10.682;2022-12-31T15:48:25;3.00;;;0.75;;
57155;SDS011;43023;59.928;10.682;2022-12-31T15:50:53;3.45;;;1.08;;
57155;SDS011;43023;59.928;10.682;2022-12-31T15:56:40;3.40;;;0.95;;
57155;SDS011;43023;59.928;10.682;2022-12-31T15:59:12;3.50;;;1.13;;
57155;SDS011;43023;59.928;10.682;2022-12-31T16:01:40;4.85;;;1.17;;
57155;SDS011;43023;59.928;10.682;2022-12-31T16:04:13;5.03;;;1.50;;
57155;SDS011;43023;59.928;10.682;2022-12-31T16:06:39;2.50;;;1.45;;
57155;SDS011;43023;59.928;10.682;2022-12-31T16:09:07;2.83;;;1.23;;
57155;SDS011;43023;59.928;10.682;2022-12-31T16:11:35;2.95;;;1.55;;
57155;SDS011;43023;59.928;10.682;2022-12-31T16:14:01;3.10;;;1.70;;
57155;SDS011;43023;59.928;10.682;2022-12-31T16:16:29;3.63;;;1.90;;
57155;SDS011;43023;59.928;10.682;2022-12-31T16:18:56;4.90;;;1.92;;
57155;SDS011;43023;59.928;10.682;2022-12-31T16:21:23;3.88;;;1.98;;
57155;SDS011;43023;59.928;10.682;2022-12-31T16:23:50;6.70;;;2.35;;
57155;SDS011;43023;59.928;10.682;2022-12-31T16:26:16;5.63;;;2.25;;
57155;SDS011;43023;59.928;10.682;2022-12-31T16:28:45;3.10;;;1.83;;
57155;SDS011;43023;59.928;10.682;2022-12-31T16:31:18;3.25;;;1.90;;
57155;SDS011;43023;59.928;10.682;2022-12-31T16:33:44;1.60;;;1.50;;
57155;SDS011;43023;59.928;10.682;2022-12-31T16:36:20;3.17;;;1.95;;
57155;SDS011;43023;59.928;10.682;2022-12-31T16:38:47;3.65;;;2.30;;
57155;SDS011;43023;59.928;10.682;2022-12-31T16:41:17;5.13;;;2.20;;
57155;SDS011;43023;59.928;10.682;2022-12-31T16:43:45;3.78;;;2.38;;
57155;SDS011;43023;59.928;10.682;2022-12-31T16:46:14;5.43;;;1.90;;
57155;SDS011;43023;59.928;10.682;2022-12-31T16:48:48;6.38;;;1.92;;
57155;SDS011;43023;59.928;10.682;2022-12-31T16:53:41;4.35;;;2.17;;
57155;SDS011;43023;59.928;10.682;2022-12-31T16:56:07;4.80;;;2.35;;
57155;SDS011;43023;59.928;10.682;2022-12-31T16:58:35;4.20;;;2.40;;
57155;SDS011;43023;59.928;10.682;2022-12-31T17:01:12;7.50;;;2.40;;
57155;SDS011;43023;59.928;10.682;2022-12-31T17:03:41;2.28;;;1.73;;
57155;SDS011;43023;59.928;10.682;2022-12-31T17:11:15;4.80;;;3.00;;
57155;SDS011;43023;59.928;10.682;2022-12-31T17:13:41;5.10;;;1.88;;
57155;SDS011;43023;59.928;10.682;2022-12-31T17:16:07;5.03;;;2.17;;
57155;SDS011;43023;59.928;10.682;2022-12-31T17:18:34;11.40;;;2.58;;
57155;SDS011;43023;59.928;10.682;2022-12-31T17:21:05;5.28;;;2.08;;
57155;SDS011;43023;59.928;10.682;2022-12-31T17:23:33;5.07;;;2.50;;
57155;SDS011;43023;59.928;10.682;2022-12-31T17:26:10;4.45;;;2.20;;
57155;SDS011;43023;59.928;10.682;2022-12-31T17:28:41;6.68;;;2.75;;
57155;SDS011;43023;59.928;10.682;2022-12-31T17:36:39;4.05;;;2.20;;
57155;SDS011;43023;59.928;10.682;2022-12-31T17:39:15;5.53;;;2.28;;
57155;SDS011;43023;59.928;10.682;2022-12-31T17:41:45;5.53;;;2.25;;
57155;SDS011;43023;59.928;10.682;2022-12-31T17:44:19;9.63;;;2.95;;
57155;SDS011;43023;59.928;10.682;2022-12-31T17:49:11;3.72;;;2.47;;
57155;SDS011;43023;59.928;10.682;2022-12-31T17:51:40;5.53;;;2.22;;
57155;SDS011;43023;59.928;10.682;2022-12-31T17:54:13;2.90;;;2.05;;
57155;SDS011;43023;59.928;10.682;2022-12-31T17:56:39;3.05;;;2.05;;
57155;SDS011;43023;59.928;10.682;2022-12-31T17:59:05;3.50;;;2.45;;
57155;SDS011;43023;59.928;10.682;2022-12-31T18:01:31;2.45;;;1.92;;
57155;SDS011;43023;59.928;10.682;2022-12-31T18:03:58;6.32;;;2.33;;
57155;SDS011;43023;59.928;10.682;2022-12-31T18:06:24;5.25;;;2.20;;
57155;SDS011;43023;59.928;10.682;2022-12-31T18:08:51;4.00;;;2.35;;
57155;SDS011;43023;59.928;10.682;2022-12-31T18:11:19;5.00;;;1.98;;
57155;SDS011;43023;59.928;10.682;2022-12-31T18:13:45;3.97;;;2.75;;
57155;SDS011;43023;59.928;10.682;2022-12-31T18:16:11;3.97;;;2.67;;
57155;SDS011;43023;59.928;10.682;2022-12-31T18:18:38;3.28;;;2.78;;
57155;SDS011;43023;59.928;10.682;2022-12-31T18:21:06;4.40;;;3.10;;
57155;SDS011;43023;59.928;10.682;2022-12-31T18:23:40;3.78;;;2.72;;
57155;SDS011;43023;59.928;10.682;2022-12-31T18:26:13;4.32;;;3.33;;
57155;SDS011;43023;59.928;10.682;2022-12-31T18:28:40;4.57;;;2.92;;
57155;SDS011;43023;59.928;10.682;2022-12-31T18:31:10;5.38;;;3.60;;
57155;SDS011;43023;59.928;10.682;2022-12-31T18:33:38;9.07;;;4.45;;
57155;SDS011;43023;59.928;10.682;2022-12-31T18:36:04;3.78;;;2.95;;
57155;SDS011;43023;59.928;10.682;2022-12-31T18:38:30;6.90;;;3.83;;
57155;SDS011;43023;59.928;10.682;2022-12-31T18:40:57;8.63;;;4.72;;
57155;SDS011;43023;59.928;10.682;2022-12-31T18:43:24;5.78;;;4.40;;
57155;SDS011;43023;59.928;10.682;2022-12-31T18:45:50;7.82;;;4.90;;
57155;SDS011;43023;59.928;10.682;2022-12-31T18:48:16;6.30;;;4.47;;
57155;SDS011;43023;59.928;10.682;2022-12-31T18:50:43;7.72;;;5.35;;
57155;SDS011;43023;59.928;10.682;2022-12-31T18:53:13;8.80;;;6.50;;
57155;SDS011;43023;59.928;10.682;2022-12-31T18:55:41;11.45;;;6.70;;
57155;SDS011;43023;59.928;10.682;2022-12-31T18:58:09;9.80;;;7.28;;
57155;SDS011;43023;59.928;10.682;2022-12-31T19:00:35;13.63;;;8.73;;
57155;SDS011;43023;59.928;10.682;2022-12-31T19:03:02;10.85;;;8.43;;
57155;SDS011;43023;59.928;10.682;2022-12-31T19:05:30;11.95;;;9.10;;
57155;SDS011;43023;59.928;10.682;2022-12-31T19:07:57;15.10;;;10.95;;
57155;SDS011;43023;59.928;10.682;2022-12-31T19:10:24;13.73;;;9.82;;
57155;SDS011;43023;59.928;10.682;2022-12-31T19:12:50;16.08;;;10.73;;
57155;SDS011;43023;59.928;10.682;2022-12-31T19:17:52;17.17;;;11.45;;
57155;SDS011;43023;59.928;10.682;2022-12-31T19:20:18;15.88;;;11.15;;
57155;SDS011;43023;59.928;10.682;2022-12-31T19:22:44;20.63;;;11.90;;